Cape Hatteras Naval Facility, North Carolina
Current Conditions -  °F | °C
As of 7:10 AM on Monday 24 Nov 2014 (Local Time) from KHSE Reporting Station
Haze Haze  
Wind Chill: 20°   Ceiling: 4300
Heat Index: 20°   Visibility: 2.5mi
Dew Point: 19°   Wind: 8mph
Humidity: 96%   Direction: 230°SW
Pressure: 29.88"   Gusts: NA
Location:  35.2677°N, 75.5426°W
Report Text: KHSE 241210Z AUTO 23007KT 2 1/2SM BR FEW022 BKN043 OVC060 20/19 A2988 RMK AO2 RAE05 P0001 T02000194 TSNO
Loading
Personal Weather Stations






























Interactive Weather Map New forecast layout! Learn more

10-Day Weather Forecast

Advertisements
Track Severe Weather on mobile